首页
METAR-TAF:

METAR-TAF

机场 :

科珀斯克里斯蒂 / Kingsville, 得克萨斯州, 美国

纬度: 27-46-23N, 经度: 097-30-46W, 海拔: 13米

当前天气观测

该预报发布于1小时和11分钟前的00:51 UTC
风速14节,风向东转东南
温度 29°C
湿度 84%
气压 1008 hPa
能見度: 12.9公里
散云层高于1700英尺
散云层高于2300英尺
多云层高于3500英尺

METAR: KCRP 210051Z 11014KT 8SM SCT017 SCT023 BKN035 29/26 A2977 RMK AO2 SLP078 T02890261

时间: 21:02 (02:02 UTC)

预报

该预报发布于2小时和42分钟前的23:20 UTC
预报有效从21日的 00点(UTC)到 21日的 24点(UTC)
风速12节,风向东转东南
能見度: 10公里
散云层高于2200英尺
从 21日的 0300点(UTC)
风速10节,风向东南
能見度: 10公里
多云层高于1300英尺
从 21日的 1400点(UTC)
风速16节,风向南转南东,有时为22节阵风
能見度: 10公里
少量云层高于4500英尺

TAF: KCRP 202320Z 2100/2124 12012KT P6SM SCT022 FM210300 13010KT P6SM BKN013 FM211400 15016G22KT P6SM FEW045

超过4000个机场的气象观测和天气预报(METAR&TAF报告)。

可查询的气象台以黄色和红色小点在地图上表示。

将鼠标移到小点上方,可查看气象台名称。

然后点击查看天气观测和预报。

如需切换地图:点击带黑十字的绿色按钮放大地图;点击带横线的绿色按钮缩小地图;或者点击绿色箭头查看邻近地区的地图。


METAR-TAF: